Terminal Aerodrome Forecast
Issued by NWS

Home | Current Version | Previous Version | Text Only | Print | Product List | Glossary On
Versions: 1 2 3 4 5 6 7 8 9 10 11 12 13 14
000
FTUS44 KLZK 040539
TAFPBF
TAF
KPBF 040539Z 0406/0506 07008G15KT 5SM -RA BR OVC008
      TEMPO 0406/0410 1SM -RADZ BR OVC004
     FM041000 04005KT 2SM BR VCSH OVC004
     FM041300 03004KT 1SM BR VCSH OVC007
     FM042000 35006KT P6SM BKN008 OVC015=

USA.gov is the U.S. government's official web portal to all federal, state and local government web resources and services.